createdAt,value
2022-10-14T00:02:22.500Z,100967.75
2022-10-14T00:07:24.202Z,100955.34
2022-10-14T00:12:25.742Z,100963.69
2022-10-14T00:17:27.198Z,100966.03
2022-10-14T00:22:28.713Z,100966.28
2022-10-14T00:27:30.483Z,100954.56
2022-10-14T00:32:31.946Z,100954.81
2022-10-14T00:37:33.395Z,100959.94
2022-10-14T00:42:34.844Z,100949.91
2022-10-14T00:47:36.316Z,100959.72
2022-10-14T00:52:37.757Z,100959.69
2022-10-14T00:57:39.448Z,100950.13
2022-10-14T01:02:41.113Z,100953.19
2022-10-14T01:08:03.152Z,100947.88
2022-10-14T01:13:08.611Z,100949.34
2022-10-14T01:18:17.760Z,100944.34
2022-10-14T01:23:40.320Z,100944.09
2022-10-14T01:29:22.068Z,100942.06
2022-10-14T01:34:27.496Z,100939.66
2022-10-14T01:39:33.232Z,100932.53
2022-10-14T01:44:35.379Z,100932.69
2022-10-14T01:49:43.022Z,100924.88
2022-10-14T01:54:44.465Z,100933.84
2022-10-14T01:59:46.018Z,100926.00
2022-10-14T02:04:47.484Z,100923.53
2022-10-14T02:10:10.799Z,100930.38
2022-10-14T02:15:20.866Z,100919.59
2022-10-14T02:20:29.753Z,100918.06
2022-10-14T02:25:32.157Z,100916.41
2022-10-14T02:30:37.052Z,100919.13
2022-10-14T02:35:38.747Z,100900.72
2022-10-14T02:40:41.853Z,100908.00
2022-10-14T02:45:43.561Z,100900.66
2022-10-14T02:50:45.018Z,100903.72
2022-10-14T02:55:46.457Z,100892.81
2022-10-14T03:00:49.350Z,100893.97
2022-10-14T03:05:50.809Z,100878.81
2022-10-14T03:10:52.263Z,100875.88
2022-10-14T03:15:53.723Z,100881.59
2022-10-14T03:20:55.245Z,100885.41
2022-10-14T03:25:56.690Z,100876.16
2022-10-14T03:30:58.146Z,100871.50
2022-10-14T03:35:59.625Z,100876.09
2022-10-14T03:41:01.065Z,100865.22
2022-10-14T03:46:02.545Z,100871.25
2022-10-14T03:51:04.035Z,100867.09
2022-10-14T03:56:05.677Z,100870.72
2022-10-14T04:01:07.126Z,100866.72
2022-10-14T04:06:08.630Z,100871.50
2022-10-14T04:11:10.205Z,100863.22
2022-10-14T04:16:12.041Z,100868.28
2022-10-14T04:21:13.592Z,100862.97
2022-10-14T04:26:15.062Z,100851.19
2022-10-14T04:31:16.517Z,100855.03
2022-10-14T04:36:17.970Z,100850.47
2022-10-14T04:41:19.431Z,100840.84
2022-10-14T04:46:20.888Z,100849.25
2022-10-14T04:51:22.358Z,100842.88
2022-10-14T04:56:23.810Z,100837.84
2022-10-14T05:01:26.565Z,100841.38
2022-10-14T05:06:29.693Z,100838.31
2022-10-14T05:11:31.140Z,100842.31
2022-10-14T05:16:32.629Z,100831.28
2022-10-14T05:21:34.124Z,100825.47
2022-10-14T05:26:35.578Z,100825.09
2022-10-14T05:31:37.191Z,100826.97
2022-10-14T05:36:38.896Z,100819.72
2022-10-14T05:41:40.351Z,100807.31
2022-10-14T05:46:41.807Z,100823.97
2022-10-14T05:51:43.300Z,100816.84
2022-10-14T05:56:44.750Z,100816.25
2022-10-14T06:01:46.213Z,100812.16
2022-10-14T06:06:47.676Z,100821.88
2022-10-14T06:11:49.127Z,100814.63
2022-10-14T06:16:51.074Z,100816.53
2022-10-14T06:21:52.627Z,100817.69
2022-10-14T06:26:54.074Z,100817.81
2022-10-14T06:31:55.519Z,100812.53
2022-10-14T06:37:01.944Z,100804.94
2022-10-14T06:42:03.935Z,100819.75
2022-10-14T06:47:06.660Z,100800.47
2022-10-14T06:52:08.121Z,100805.31
2022-10-14T06:57:09.576Z,100806.44
2022-10-14T07:02:11.073Z,100814.06
2022-10-14T07:07:12.548Z,100809.72
2022-10-14T07:12:13.998Z,100814.69
2022-10-14T07:17:15.445Z,100810.97
2022-10-14T07:22:17.585Z,100809.19
2022-10-14T07:27:20.713Z,100804.03
2022-10-14T07:32:22.535Z,100806.19
2022-10-14T07:37:24.432Z,100801.41
2022-10-14T07:42:26.066Z,100810.59
2022-10-14T07:47:27.773Z,100809.47
2022-10-14T07:52:29.251Z,100814.63
2022-10-14T07:57:30.738Z,100824.38
2022-10-14T08:02:32.223Z,100825.59
2022-10-14T08:07:33.702Z,100821.19
2022-10-14T08:12:35.177Z,100823.69
2022-10-14T08:17:36.638Z,100816.63
2022-10-14T08:22:38.100Z,100813.53
2022-10-14T08:27:39.826Z,100820.78
2022-10-14T08:32:41.294Z,100813.53
2022-10-14T08:37:43.150Z,100819.06
2022-10-14T08:43:01.694Z,100822.38
2022-10-14T08:48:08.779Z,100813.63
2022-10-14T08:53:21.518Z,100816.94
2022-10-14T08:58:34.843Z,100816.00
2022-10-14T09:03:36.947Z,100796.09
2022-10-14T09:08:43.839Z,100796.41
2022-10-14T09:13:49.403Z,100787.69
2022-10-14T09:18:54.823Z,100787.16
2022-10-14T09:23:59.313Z,100781.13
2022-10-14T09:29:01.006Z,100788.09
2022-10-14T09:34:02.501Z,100778.31
2022-10-14T09:39:06.316Z,100771.59
2022-10-14T09:44:18.353Z,100779.44
2022-10-14T09:49:23.441Z,100776.72
2022-10-14T09:54:26.484Z,100765.75
2022-10-14T09:59:27.962Z,100765.50
2022-10-14T10:04:32.121Z,100765.06
2022-10-14T10:09:33.742Z,100764.50
2022-10-14T10:14:35.208Z,100766.16
2022-10-14T10:19:43.945Z,100753.13
2022-10-14T10:24:49.767Z,100772.63
2022-10-14T10:29:51.208Z,100754.50
2022-10-14T10:35:14.576Z,100763.41
2022-10-14T10:40:25.005Z,100767.41
2022-10-14T10:45:39.046Z,100762.00
2022-10-14T10:51:09.814Z,100762.50
2022-10-14T10:56:31.390Z,100756.94
2022-10-14T11:01:48.822Z,100750.47
2022-10-14T11:07:30.742Z,100749.19
2022-10-14T11:13:08.276Z,100731.28
2022-10-14T11:18:20.524Z,100735.13
2022-10-14T11:23:39.321Z,100737.38
2022-10-14T11:29:03.128Z,100729.94
2022-10-14T11:34:10.318Z,100726.75
2022-10-14T11:39:39.659Z,100716.16
2022-10-14T11:44:43.961Z,100704.81
2022-10-14T11:49:57.487Z,100715.00
2022-10-14T11:55:13.681Z,100699.75
2022-10-14T12:00:18.702Z,100705.09
2022-10-14T12:05:34.883Z,100685.41
2022-10-14T12:10:38.878Z,100694.75
2022-10-14T12:15:40.741Z,100692.22
2022-10-14T12:20:57.008Z,100692.59
2022-10-14T12:26:13.873Z,100677.88
2022-10-14T12:31:22.326Z,100672.34
2022-10-14T12:36:33.369Z,100661.66
2022-10-14T12:41:39.710Z,100650.41
2022-10-14T12:46:45.012Z,100645.03
2022-10-14T12:51:53.982Z,100634.72
2022-10-14T12:56:57.996Z,100619.75
2022-10-14T13:02:02.678Z,100608.38
2022-10-14T13:07:38.838Z,100605.16
2022-10-14T13:12:38.688Z,100608.88
2022-10-14T13:17:46.440Z,100603.59
2022-10-14T13:22:49.421Z,100604.00
2022-10-14T13:27:58.032Z,100580.56
2022-10-14T13:32:59.847Z,100579.19
2022-10-14T13:38:01.718Z,100568.28
2022-10-14T13:43:18.547Z,100558.41
2022-10-14T13:48:23.961Z,100545.00
2022-10-14T13:53:25.446Z,100543.53
2022-10-14T13:58:26.922Z,100534.94
2022-10-14T14:03:34.398Z,100530.97
2022-10-14T14:08:40.887Z,100524.19
2022-10-14T14:13:54.447Z,100526.00
2022-10-14T14:19:07.891Z,100511.69
2022-10-14T14:24:39.201Z,100516.53
2022-10-14T14:29:44.657Z,100518.81
2022-10-14T14:34:47.351Z,100504.59
2022-10-14T14:40:16.037Z,100495.75
2022-10-14T14:45:27.906Z,100497.50
2022-10-14T14:50:43.365Z,100494.09
2022-10-14T14:55:53.729Z,100478.19
2022-10-14T15:00:55.454Z,100476.28
2022-10-14T15:06:01.832Z,100469.44
2022-10-14T15:11:03.516Z,100467.81
2022-10-14T15:16:05.440Z,100463.47
2022-10-14T15:21:12.590Z,100464.31
2022-10-14T15:26:21.708Z,100452.22
2022-10-14T15:31:23.177Z,100443.75
2022-10-14T15:36:32.505Z,100434.28
2022-10-14T15:41:33.984Z,100434.81
2022-10-14T15:46:54.788Z,100416.44
2022-10-14T15:51:56.312Z,100407.63
2022-10-14T15:56:57.885Z,100408.28
2022-10-14T16:01:59.426Z,100405.22
2022-10-14T16:07:00.924Z,100402.22
2022-10-14T16:12:02.385Z,100385.59
2022-10-14T16:17:03.920Z,100392.84
2022-10-14T16:22:05.392Z,100379.06
2022-10-14T16:27:06.905Z,100386.19
2022-10-14T16:32:09.696Z,100365.72
2022-10-14T16:37:11.158Z,100376.91
2022-10-14T16:42:12.691Z,100375.13
2022-10-14T16:47:17.073Z,100353.00
2022-10-14T16:52:18.644Z,100351.69
2022-10-14T16:57:20.588Z,100344.16
2022-10-14T17:02:22.264Z,100343.69
2022-10-14T17:07:23.819Z,100344.53
2022-10-14T17:12:26.120Z,100339.19
2022-10-14T17:17:27.816Z,100339.72
2022-10-14T17:22:29.277Z,100323.22
2022-10-14T17:27:30.727Z,100325.44
2022-10-14T17:32:32.185Z,100318.25
2022-10-14T17:37:33.640Z,100327.50
2022-10-14T17:42:35.088Z,100311.91
2022-10-14T17:47:36.546Z,100309.41
2022-10-14T17:52:38.022Z,100297.31
2022-10-14T17:57:39.481Z,100295.97
2022-10-14T18:02:41.017Z,100289.94
2022-10-14T18:07:42.519Z,100279.69
2022-10-14T18:12:43.981Z,100280.94
2022-10-14T18:17:45.446Z,100268.28
2022-10-14T18:27:53.447Z,100259.69
2022-10-14T18:32:55.863Z,100252.16
2022-10-14T18:37:57.344Z,100246.97
2022-10-14T18:42:59.655Z,100244.81
2022-10-14T18:48:00.996Z,100236.47
2022-10-14T18:53:02.851Z,100236.84
2022-10-14T18:58:04.323Z,100228.78
2022-10-14T19:03:06.828Z,100221.19
2022-10-14T19:08:08.340Z,100213.53
2022-10-14T19:13:09.886Z,100213.66
2022-10-14T19:18:11.365Z,100193.22
2022-10-14T19:23:12.833Z,100191.66
2022-10-14T19:28:14.290Z,100190.38
2022-10-14T19:33:15.747Z,100178.13
2022-10-14T19:38:17.206Z,100196.16
2022-10-14T19:43:18.657Z,100170.28
2022-10-14T19:48:20.107Z,100171.25
2022-10-14T19:53:21.624Z,100163.28
2022-10-14T19:58:23.135Z,100158.84
2022-10-14T20:03:24.622Z,100154.56
2022-10-14T20:08:26.083Z,100149.66
2022-10-14T20:13:27.565Z,100148.81
2022-10-14T20:18:29.603Z,100143.19
2022-10-14T20:23:32.981Z,100145.84
2022-10-14T20:28:35.512Z,100139.03
2022-10-14T20:33:37.059Z,100135.91
2022-10-14T20:38:38.823Z,100130.09
2022-10-14T20:43:41.105Z,100129.50
2022-10-14T20:48:42.503Z,100137.09
2022-10-14T20:53:43.975Z,100127.81
2022-10-14T20:58:45.507Z,100121.84
2022-10-14T21:03:47.577Z,100121.56
2022-10-14T21:08:49.526Z,100123.88
2022-10-14T21:13:52.797Z,100111.59
2022-10-14T21:18:58.939Z,100111.53
2022-10-14T21:24:00.470Z,100105.34
2022-10-14T21:29:05.065Z,100101.19
2022-10-14T21:34:06.806Z,100103.09
2022-10-14T21:39:09.658Z,100094.63
2022-10-14T21:44:16.822Z,100086.03
2022-10-14T21:49:18.392Z,100087.78
2022-10-14T21:54:21.707Z,100094.22
2022-10-14T21:59:23.160Z,100093.53
2022-10-14T22:04:26.425Z,100080.97
2022-10-14T22:09:27.900Z,100085.63
2022-10-14T22:14:29.377Z,100078.44
2022-10-14T22:19:30.833Z,100081.22
2022-10-14T22:24:32.282Z,100084.13
2022-10-14T22:29:33.740Z,100074.97
2022-10-14T22:34:35.248Z,100084.22
2022-10-14T22:39:36.693Z,100080.44
2022-10-14T22:44:38.144Z,100071.22
2022-10-14T22:49:39.588Z,100073.63
2022-10-14T22:54:41.045Z,100073.88
2022-10-14T22:59:42.561Z,100078.72
2022-10-14T23:04:44.026Z,100075.31
2022-10-14T23:09:45.957Z,100076.06
2022-10-14T23:14:47.483Z,100078.72
2022-10-14T23:19:48.958Z,100072.38
2022-10-14T23:24:50.408Z,100084.84
2022-10-14T23:29:51.847Z,100082.84
2022-10-14T23:34:53.321Z,100086.75
2022-10-14T23:39:54.767Z,100082.66
2022-10-14T23:44:56.209Z,100088.78
2022-10-14T23:49:57.665Z,100085.06
2022-10-14T23:54:59.269Z,100073.19
